Overview Statistics Trail Chart Weather Telemetry Raw packets
 

This is the latest recevied weather packets stored in our database for station/object EB2EMZ-W. If no packets are shown the sender has not sent any weather packets the latest 10 day(s).

<< 5 6 7 8 9 10 11 >>
Time Temp. Humidity Pressure Rain* Wind** Luminosity Snow
1788303102 20° C 68% 1006 hPa 0 mm - - -
1788301283 20° C 68% 1006 hPa 0 mm - - -
1788299461 20.56° C 65% 1006 hPa 0 mm - - -
1788297641 20° C 63% 1007 hPa 0 mm - - -
1788295820 20.56° C 64% 1007 hPa 0 mm - - -
1788294000 20.56° C 58% 1006 hPa 0 mm - - -
1788292180 21.67° C 57% 1006 hPa 0 mm - - -
1788290360 21.67° C 56% 1006 hPa 0 mm - - -
1788288540 22.22° C 53% 1006 hPa 0 mm - - -
1788286719 22.22° C 52% 1005 hPa 0 mm - - -
1788284899 22.78° C 49% 1005 hPa 0 mm - - -
1788283079 23.33° C 45% 1005 hPa 0 mm - - -
1788281259 23.89° C 45% 1005 hPa 0 mm - - -
1788279439 23.33° C 47% 1004 hPa 0 mm - - -
1788277619 23.33° C 47% 1004 hPa 0 mm - - -
1788275799 22.78° C 49% 1004 hPa 0 mm - - -
1788273978 23.33° C 47% 1005 hPa 0 mm - - -
1788272158 23.33° C 48% 1005 hPa 0 mm - - -
1788270339 22.78° C 53% 1005 hPa 0 mm - - -
1788268517 22.22° C 53% 1005 hPa 0 mm - - -
1788266698 25° C 45% 1005 hPa 0 mm - - -
1788264877 23.33° C 50% 1005 hPa 0 mm - - -
1788261235 23.89° C 44% 1005 hPa 0 mm - - -
1788259416 24.44° C 42% 1005 hPa 0 mm - - -
1788257595 25.56° C 42% 1004.6 hPa 0 mm - - -

* Rain latest hour (hover to see other rain measurements)
** Current wind speed in m/s (hover to see current wind gust speed)